Airfield :
LOGIN :

Register | Disclaimer

   EN    FR    IT 

 










Legend :    VFR   Marginal VFR   IFR   Intensive IFR   Very Intensive IFR
Visi :
Ceiling :
>= 8 km
>= 3000ft
5 to 8 km
1000 to 3000 ft
1500m to 5 km
500 to 1000 ft
800 to 1500m
200 to 500 ft
< 800m
< 200 ft
Symbols :   Thunderstorms  Fog  Heavy snow  Heavy precipitations  Wind > 20 kt
SIGMETs :     Misc.  Thunderstorms  Icing  Turbulence  Mountain Waves  Volcanic Ashes






- Airport Elevation : 20 ft


EBFN - Koksijde

CURRENT METAR :
  • 271725Z AUTO 16011KT 9999 BKN043/// OVC056/// 08/07 Q0997 BLU

EXPIRED METARs :
  • 271713Z AUTO 16011KT 9999 FEW041/// BKN048/// BKN091/// 08/07 Q0998 BLU
  • 271655Z AUTO 17011KT 9999 SCT022/// BKN047/// BKN068/// 09/07 Q0998 WHT
  • 271625Z AUTO 18009KT 9999 -RA BKN021/// BKN039/// 09/07 Q0999 WHT
  • 271555Z AUTO 18009KT 9999 FEW019/// SCT042/// BKN140/// 09/07 Q1000 BLU
  • 271537Z AUTO 18009KT 1700 FU FEW049/// BKN120/// 09/07 Q1000 YLO BLU TEMPO GRN
  • 271455Z 19011KT 9999 FEW020 BKN040 BKN200 09/07 Q1001 RESHRA BLU BLU TEMPO WHT

TAF TAF EBFN
Valid from the 27 at 13:00 until the 27 at 22:00 UTC


271141Z 2713/2722 20010G20KT 9999 FEW018 BKN150
TEMPO 2713/2722 20015G25KT 6000 -SHRA SCT016 BKN150
PROB40
TEMPO 2713/2722 22020G30KT 4000 SHRA SCT012 BKN014TCU



MET'MAP, your aeronautical weather chart ! - Copyright ORBIFLY December 2007 - Disclaimer

ORBIFLY MET'MAP TEAM :

Programming & Development : Alexandra Zaïnal
Concept & original design : Baudouin d'Aumeries
Assistance for programming : Marc-Olivier Méhu
Technical & hardware support : Manuel Goepfert

Contact : metmap@orbifly.com




SOURCES & CREDITS :

   NOAA